sensor_id;sensor_type;location;lat;lon;timestamp;pressure;altitude;pressure_sealevel;temperature;humidity
43878;BME280;29815;48.184;11.268;2022-10-16T00:02:28;95609.56;;;10.88;100.00
43878;BME280;29815;48.184;11.268;2022-10-16T00:04:59;95610.91;;;10.85;100.00
43878;BME280;29815;48.184;11.268;2022-10-16T00:07:30;95615.47;;;10.79;100.00
43878;BME280;29815;48.184;11.268;2022-10-16T00:09:59;95612.78;;;10.74;100.00
43878;BME280;29815;48.184;11.268;2022-10-16T00:12:30;95614.13;;;10.72;100.00
43878;BME280;29815;48.184;11.268;2022-10-16T00:14:59;95613.59;;;10.70;100.00
43878;BME280;29815;48.184;11.268;2022-10-16T00:17:29;95613.34;;;10.66;100.00
43878;BME280;29815;48.184;11.268;2022-10-16T00:19:59;95615.50;;;10.64;100.00
43878;BME280;29815;48.184;11.268;2022-10-16T00:22:48;95609.84;;;10.66;100.00
43878;BME280;29815;48.184;11.268;2022-10-16T00:25:18;95618.72;;;10.71;100.00
43878;BME280;29815;48.184;11.268;2022-10-16T00:27:47;95621.94;;;10.73;100.00
43878;BME280;29815;48.184;11.268;2022-10-16T00:30:17;95617.91;;;10.71;100.00
43878;BME280;29815;48.184;11.268;2022-10-16T00:32:46;95622.47;;;10.75;100.00
43878;BME280;29815;48.184;11.268;2022-10-16T00:35:16;95625.44;;;10.79;100.00
43878;BME280;29815;48.184;11.268;2022-10-16T00:37:55;95631.91;;;10.88;100.00
43878;BME280;29815;48.184;11.268;2022-10-16T00:40:24;95632.19;;;10.92;100.00
43878;BME280;29815;48.184;11.268;2022-10-16T00:42:56;95621.16;;;10.93;100.00
43878;BME280;29815;48.184;11.268;2022-10-16T00:45:25;95629.47;;;10.97;100.00
43878;BME280;29815;48.184;11.268;2022-10-16T00:47:56;95625.16;;;11.01;100.00
43878;BME280;29815;48.184;11.268;2022-10-16T00:50:29;95628.66;;;11.06;100.00
43878;BME280;29815;48.184;11.268;2022-10-16T00:53:02;95625.69;;;11.08;100.00
43878;BME280;29815;48.184;11.268;2022-10-16T00:55:32;95621.13;;;11.08;100.00
43878;BME280;29815;48.184;11.268;2022-10-16T00:58:07;95630.28;;;11.07;100.00
43878;BME280;29815;48.184;11.268;2022-10-16T01:00:36;95634.59;;;11.03;100.00
43878;BME280;29815;48.184;11.268;2022-10-16T01:03:24;95634.84;;;11.02;100.00
43878;BME280;29815;48.184;11.268;2022-10-16T01:06:18;95633.25;;;11.01;100.00
43878;BME280;29815;48.184;11.268;2022-10-16T01:09:12;95625.97;;;11.01;100.00
43878;BME280;29815;48.184;11.268;2022-10-16T01:11:52;95621.66;;;11.00;100.00
43878;BME280;29815;48.184;11.268;2022-10-16T01:14:37;95629.47;;;10.97;100.00
43878;BME280;29815;48.184;11.268;2022-10-16T01:17:25;95633.25;;;10.96;100.00
43878;BME280;29815;48.184;11.268;2022-10-16T01:20:13;95641.06;;;10.92;100.00
43878;BME280;29815;48.184;11.268;2022-10-16T01:23:05;95631.66;;;10.90;100.00
43878;BME280;29815;48.184;11.268;2022-10-16T01:26:28;95624.13;;;10.92;100.00
43878;BME280;29815;48.184;11.268;2022-10-16T01:29:12;95631.09;;;10.98;100.00
43878;BME280;29815;48.184;11.268;2022-10-16T01:31:50;95633.25;;;11.01;100.00
43878;BME280;29815;48.184;11.268;2022-10-16T01:34:31;95634.84;;;11.02;100.00
43878;BME280;29815;48.184;11.268;2022-10-16T01:37:07;95634.06;;;11.01;100.00
43878;BME280;29815;48.184;11.268;2022-10-16T01:39:40;95633.78;;;10.98;100.00
43878;BME280;29815;48.184;11.268;2022-10-16T01:42:15;95635.13;;;11.05;100.00
43878;BME280;29815;48.184;11.268;2022-10-16T01:44:48;95629.75;;;11.05;100.00
43878;BME280;29815;48.184;11.268;2022-10-16T01:47:23;95634.84;;;11.02;100.00
43878;BME280;29815;48.184;11.268;2022-10-16T01:49:55;95625.44;;;10.99;100.00
43878;BME280;29815;48.184;11.268;2022-10-16T01:52:29;95620.59;;;10.96;100.00
43878;BME280;29815;48.184;11.268;2022-10-16T01:55:01;95618.16;;;10.95;100.00
43878;BME280;29815;48.184;11.268;2022-10-16T01:57:32;95620.88;;;10.90;100.00
43878;BME280;29815;48.184;11.268;2022-10-16T02:00:11;95623.56;;;10.84;100.00
43878;BME280;29815;48.184;11.268;2022-10-16T02:02:46;95626.78;;;10.81;100.00
43878;BME280;29815;48.184;11.268;2022-10-16T02:05:24;95618.97;;;10.75;100.00
43878;BME280;29815;48.184;11.268;2022-10-16T02:07:56;95624.34;;;10.70;100.00
43878;BME280;29815;48.184;11.268;2022-10-16T02:10:30;95619.78;;;10.70;100.00
43878;BME280;29815;48.184;11.268;2022-10-16T02:13:05;95620.31;;;10.72;100.00
43878;BME280;29815;48.184;11.268;2022-10-16T02:15:38;95612.78;;;10.74;100.00
43878;BME280;29815;48.184;11.268;2022-10-16T02:18:08;95621.66;;;10.75;100.00
43878;BME280;29815;48.184;11.268;2022-10-16T02:20:48;95627.31;;;10.73;100.00
43878;BME280;29815;48.184;11.268;2022-10-16T02:23:29;95628.41;;;10.72;100.00
43878;BME280;29815;48.184;11.268;2022-10-16T02:26:08;95634.03;;;10.71;100.00
43878;BME280;29815;48.184;11.268;2022-10-16T02:28:45;95635.66;;;10.67;100.00
43878;BME280;29815;48.184;11.268;2022-10-16T02:31:25;95631.09;;;10.62;100.00
43878;BME280;29815;48.184;11.268;2022-10-16T02:33:59;95628.69;;;10.61;100.00
43878;BME280;29815;48.184;11.268;2022-10-16T02:36:31;95620.34;;;10.62;100.00
43878;BME280;29815;48.184;11.268;2022-10-16T02:39:02;95623.31;;;10.66;100.00
43878;BME280;29815;48.184;11.268;2022-10-16T02:41:33;95629.75;;;10.65;100.00
43878;BME280;29815;48.184;11.268;2022-10-16T02:44:02;95635.66;;;10.67;100.00
43878;BME280;29815;48.184;11.268;2022-10-16T02:46:33;95629.50;;;10.66;100.00
43878;BME280;29815;48.184;11.268;2022-10-16T02:49:03;95637.84;;;10.65;100.00
43878;BME280;29815;48.184;11.268;2022-10-16T02:51:32;95635.94;;;10.65;100.00
43878;BME280;29815;48.184;11.268;2022-10-16T02:54:02;95633.53;;;10.64;100.00
43878;BME280;29815;48.184;11.268;2022-10-16T02:56:32;95639.19;;;10.62;100.00
43878;BME280;29815;48.184;11.268;2022-10-16T02:59:01;95642.13;;;10.61;100.00
43878;BME280;29815;48.184;11.268;2022-10-16T03:01:32;95628.94;;;10.59;100.00
43878;BME280;29815;48.184;11.268;2022-10-16T03:04:04;95631.63;;;10.59;100.00
43878;BME280;29815;48.184;11.268;2022-10-16T03:06:34;95637.00;;;10.59;100.00
43878;BME280;29815;48.184;11.268;2022-10-16T03:09:03;95639.16;;;10.57;100.00
43878;BME280;29815;48.184;11.268;2022-10-16T03:11:33;95642.66;;;10.58;100.00
43878;BME280;29815;48.184;11.268;2022-10-16T03:14:02;95639.72;;;10.59;100.00
43878;BME280;29815;48.184;11.268;2022-10-16T03:16:33;95630.28;;;10.62;100.00
43878;BME280;29815;48.184;11.268;2022-10-16T03:19:02;95634.06;;;10.66;100.00
43878;BME280;29815;48.184;11.268;2022-10-16T03:21:32;95642.94;;;10.76;100.00
43878;BME280;29815;48.184;11.268;2022-10-16T03:24:02;95642.97;;;10.87;100.00
43878;BME280;29815;48.184;11.268;2022-10-16T03:26:31;95638.38;;;10.92;100.00
43878;BME280;29815;48.184;11.268;2022-10-16T03:29:01;95636.19;;;10.94;100.00
43878;BME280;29815;48.184;11.268;2022-10-16T03:31:33;95634.59;;;10.98;100.00
43878;BME280;29815;48.184;11.268;2022-10-16T03:34:02;95642.66;;;11.03;100.00
43878;BME280;29815;48.184;11.268;2022-10-16T03:36:32;95648.06;;;11.08;100.00
43878;BME280;29815;48.184;11.268;2022-10-16T03:39:01;95643.22;;;11.10;100.00
43878;BME280;29815;48.184;11.268;2022-10-16T03:41:31;95646.97;;;11.14;100.00
43878;BME280;29815;48.184;11.268;2022-10-16T03:44:00;95637.81;;;11.15;100.00
43878;BME280;29815;48.184;11.268;2022-10-16T03:46:30;95643.47;;;11.14;100.00
43878;BME280;29815;48.184;11.268;2022-10-16T03:49:01;95641.59;;;11.14;100.00
43878;BME280;29815;48.184;11.268;2022-10-16T03:51:36;95643.22;;;11.15;100.00
43878;BME280;29815;48.184;11.268;2022-10-16T03:54:05;95638.63;;;11.16;100.00
43878;BME280;29815;48.184;11.268;2022-10-16T03:56:34;95640.78;;;11.19;100.00
43878;BME280;29815;48.184;11.268;2022-10-16T03:59:04;95642.09;;;11.22;100.00
43878;BME280;29815;48.184;11.268;2022-10-16T04:01:33;95647.22;;;11.28;100.00
43878;BME280;29815;48.184;11.268;2022-10-16T04:04:04;95651.81;;;11.33;100.00
43878;BME280;29815;48.184;11.268;2022-10-16T04:06:34;95638.88;;;11.35;100.00
43878;BME280;29815;48.184;11.268;2022-10-16T04:09:03;95629.16;;;11.39;100.00
43878;BME280;29815;48.184;11.268;2022-10-16T04:11:33;95630.25;;;11.43;100.00
43878;BME280;29815;48.184;11.268;2022-10-16T04:14:02;95629.69;;;11.46;100.00
43878;BME280;29815;48.184;11.268;2022-10-16T04:16:32;95631.81;;;11.49;100.00
43878;BME280;29815;48.184;11.268;2022-10-16T04:19:01;95635.06;;;11.51;100.00
43878;BME280;29815;48.184;11.268;2022-10-16T04:21:32;95635.31;;;11.54;100.00
43878;BME280;29815;48.184;11.268;2022-10-16T04:24:02;95645.00;;;11.56;100.00
43878;BME280;29815;48.184;11.268;2022-10-16T04:26:31;95657.13;;;11.63;100.00
43878;BME280;29815;48.184;11.268;2022-10-16T04:29:01;95669.00;;;11.67;100.00
43878;BME280;29815;48.184;11.268;2022-10-16T04:31:30;95671.41;;;11.69;100.00
43878;BME280;29815;48.184;11.268;2022-10-16T04:34:00;95668.69;;;11.84;100.00
43878;BME280;29815;48.184;11.268;2022-10-16T04:36:29;95666.25;;;11.88;100.00
43878;BME280;29815;48.184;11.268;2022-10-16T04:39:00;95653.31;;;11.90;100.00
43878;BME280;29815;48.184;11.268;2022-10-16T04:41:29;95653.84;;;11.86;100.00
43878;BME280;29815;48.184;11.268;2022-10-16T04:43:59;95637.16;;;11.84;100.00
43878;BME280;29815;48.184;11.268;2022-10-16T04:46:28;95629.31;;;11.83;100.00
43878;BME280;29815;48.184;11.268;2022-10-16T04:48:58;95637.41;;;11.83;100.00
43878;BME280;29815;48.184;11.268;2022-10-16T04:51:27;95639.03;;;11.84;100.00
43878;BME280;29815;48.184;11.268;2022-10-16T04:53:57;95647.13;;;11.79;100.00
43878;BME280;29815;48.184;11.268;2022-10-16T04:56:28;95644.97;;;11.76;100.00
43878;BME280;29815;48.184;11.268;2022-10-16T04:58:57;95651.47;;;11.75;100.00
43878;BME280;29815;48.184;11.268;2022-10-16T05:01:26;95658.75;;;11.74;100.00
43878;BME280;29815;48.184;11.268;2022-10-16T05:03:56;95653.63;;;11.73;100.00
43878;BME280;29815;48.184;11.268;2022-10-16T05:06:25;95659.28;;;11.71;100.00
43878;BME280;29815;48.184;11.268;2022-10-16T05:08:55;95651.75;;;11.68;100.00
43878;BME280;29815;48.184;11.268;2022-10-16T05:11:24;95667.91;;;11.68;100.00
43878;BME280;29815;48.184;11.268;2022-10-16T05:13:55;95671.97;;;11.66;100.00
43878;BME280;29815;48.184;11.268;2022-10-16T05:16:24;95669.28;;;11.61;100.00
43878;BME280;29815;48.184;11.268;2022-10-16T05:18:54;95657.94;;;11.59;100.00
43878;BME280;29815;48.184;11.268;2022-10-16T05:21:44;95660.38;;;11.55;100.00
43878;BME280;29815;48.184;11.268;2022-10-16T05:24:14;95657.69;;;11.55;100.00
43878;BME280;29815;48.184;11.268;2022-10-16T05:26:43;95663.88;;;11.50;100.00
43878;BME280;29815;48.184;11.268;2022-10-16T05:29:14;95662.56;;;11.48;100.00
43878;BME280;29815;48.184;11.268;2022-10-16T05:31:43;95662.84;;;11.46;100.00
43878;BME280;29815;48.184;11.268;2022-10-16T05:34:13;95662.84;;;11.46;100.00
43878;BME280;29815;48.184;11.268;2022-10-16T05:36:42;95667.44;;;11.46;100.00
43878;BME280;29815;48.184;11.268;2022-10-16T05:39:14;95665.53;;;11.46;100.00
43878;BME280;29815;48.184;11.268;2022-10-16T05:41:44;95669.84;;;11.47;100.00
43878;BME280;29815;48.184;11.268;2022-10-16T05:44:15;95672.00;;;11.45;100.00
43878;BME280;29815;48.184;11.268;2022-10-16T05:46:46;95677.41;;;11.45;100.00
43878;BME280;29815;48.184;11.268;2022-10-16T05:49:16;95676.31;;;11.46;100.00
43878;BME280;29815;48.184;11.268;2022-10-16T05:51:45;95681.97;;;11.45;100.00
43878;BME280;29815;48.184;11.268;2022-10-16T05:54:15;95682.78;;;11.45;100.00
43878;BME280;29815;48.184;11.268;2022-10-16T05:56:44;95685.47;;;11.45;100.00
43878;BME280;29815;48.184;11.268;2022-10-16T05:59:15;95691.16;;;11.44;100.00
43878;BME280;29815;48.184;11.268;2022-10-16T06:01:44;95693.03;;;11.43;100.00
43878;BME280;29815;48.184;11.268;2022-10-16T06:04:14;95697.88;;;11.41;100.00
43878;BME280;29815;48.184;11.268;2022-10-16T06:06:43;95692.75;;;11.40;100.00
43878;BME280;29815;48.184;11.268;2022-10-16T06:09:13;95700.56;;;11.36;100.00
43878;BME280;29815;48.184;11.268;2022-10-16T06:11:42;95701.13;;;11.33;100.00
43878;BME280;29815;48.184;11.268;2022-10-16T06:14:12;95710.00;;;11.29;100.00
43878;BME280;29815;48.184;11.268;2022-10-16T06:16:43;95711.34;;;11.26;100.00
43878;BME280;29815;48.184;11.268;2022-10-16T06:19:12;95705.41;;;11.24;100.00
43878;BME280;29815;48.184;11.268;2022-10-16T06:21:43;95706.75;;;11.22;100.00
43878;BME280;29815;48.184;11.268;2022-10-16T06:24:13;95712.72;;;11.18;100.00
43878;BME280;29815;48.184;11.268;2022-10-16T06:26:42;95711.91;;;11.18;100.00
43878;BME280;29815;48.184;11.268;2022-10-16T06:29:12;95715.94;;;11.15;100.00
43878;BME280;29815;48.184;11.268;2022-10-16T06:31:43;95722.94;;;11.16;100.00
43878;BME280;29815;48.184;11.268;2022-10-16T06:34:12;95712.19;;;11.16;100.00
43878;BME280;29815;48.184;11.268;2022-10-16T06:36:42;95719.44;;;11.21;100.00
43878;BME280;29815;48.184;11.268;2022-10-16T06:39:12;95724.03;;;11.21;100.00
43878;BME280;29815;48.184;11.268;2022-10-16T06:41:41;95722.41;;;11.19;100.00
43878;BME280;29815;48.184;11.268;2022-10-16T06:44:16;95728.88;;;11.18;100.00
43878;BME280;29815;48.184;11.268;2022-10-16T06:46:47;95736.16;;;11.18;100.00
43878;BME280;29815;48.184;11.268;2022-10-16T06:49:17;95736.69;;;11.15;100.00
43878;BME280;29815;48.184;11.268;2022-10-16T06:51:50;95742.88;;;11.15;100.00
43878;BME280;29815;48.184;11.268;2022-10-16T06:54:19;95743.69;;;11.11;100.00
43878;BME280;29815;48.184;11.268;2022-10-16T06:56:49;95746.38;;;11.11;100.00
43878;BME280;29815;48.184;11.268;2022-10-16T06:59:22;95759.03;;;11.10;100.00
43878;BME280;29815;48.184;11.268;2022-10-16T07:01:53;95749.88;;;11.11;100.00
43878;BME280;29815;48.184;11.268;2022-10-16T07:04:22;95755.81;;;11.18;100.00
43878;BME280;29815;48.184;11.268;2022-10-16T07:06:51;95759.03;;;11.26;100.00
43878;BME280;29815;48.184;11.268;2022-10-16T07:09:21;95757.16;;;11.36;100.00
43878;BME280;29815;48.184;11.268;2022-10-16T07:11:50;95756.63;;;11.44;100.00
43878;BME280;29815;48.184;11.268;2022-10-16T07:14:21;95765.50;;;11.50;100.00
43878;BME280;29815;48.184;11.268;2022-10-16T07:16:52;95773.59;;;11.60;100.00
